Time;durP1;ratioP1;P1;durP2;ratioP2;P2;SDS_P1;SDS_P2;PMS_P1;PMS_P2;Temp;Humidity;BMP_temperature;BMP_pressure;BME280_temperature;BME280_humidity;BME280_pressure;Samples;Min_cycle;Max_cycle;Signal;HPM_P1;HPM_P2
2024/01/11 04:58:09;;;;;;;;;;;-7.20;99.90;;;;;;5071736;23;19929;-73
2024/01/11 05:00:36;;;;;;;;;;;-7.40;99.90;;;;;;4976879;28;19977;-72
2024/01/11 05:03:02;;;;;;;;;;;-7.30;99.90;;;;;;4976314;28;20339;-72
2024/01/11 05:05:29;;;;;;;;;;;-7.30;99.90;;;;;;4976008;28;19933;-72
2024/01/11 05:07:55;;;;;;;;;;;-7.30;99.90;;;;;;4992636;28;19958;-72
2024/01/11 05:10:22;;;;;;;;;;;-7.20;99.90;;;;;;4996144;28;19933;-74
2024/01/11 05:12:49;;;;;;;;;;;-7.20;99.90;;;;;;4995722;28;19926;-73
2024/01/11 05:15:16;;;;;;;;;;;-7.20;99.90;;;;;;4996386;28;19932;-73
2024/01/11 05:17:43;;;;;;;;;;;-7.00;99.90;;;;;;4995548;28;19949;-73
2024/01/11 05:20:10;;;;;;;;;;;-7.10;99.90;;;;;;4995584;28;19949;-73
2024/01/11 05:22:37;;;;;;;;;;;-7.00;99.90;;;;;;4995409;28;19941;-72
2024/01/11 05:25:03;;;;;;;;;;;-7.00;99.90;;;;;;4995625;28;19926;-72
2024/01/11 05:27:30;;;;;;;;;;;-6.90;99.90;;;;;;4995253;28;19932;-73
2024/01/11 05:29:57;;;;;;;;;;;-6.90;99.90;;;;;;4995661;28;19926;-73
2024/01/11 05:32:25;;;;;;;;;;;-6.80;99.90;;;;;;4995403;28;19958;-73
2024/01/11 05:34:51;;;;;;;;;;;-6.80;99.90;;;;;;4995579;28;19926;-72
2024/01/11 05:37:20;;;;;;;;;;;-6.80;99.90;;;;;;4995271;28;19933;-72
2024/01/11 05:39:47;;;;;;;;;;;-6.80;99.90;;;;;;4995334;28;20028;-74
2024/01/11 05:42:13;;;;;;;;;;;-6.80;99.90;;;;;;4996634;28;19933;-74
2024/01/11 05:44:40;;;;;;;;;;;-6.70;99.90;;;;;;4995815;28;19926;-74
2024/01/11 05:47:07;;;;;;;;;;;-6.80;99.90;;;;;;4995577;28;20057;-74
2024/01/11 05:49:35;;;;;;;;;;;-6.70;99.90;;;;;;4995598;28;19933;-74
2024/01/11 05:52:01;;;;;;;;;;;-6.70;99.90;;;;;;4995274;28;19933;-73
2024/01/11 05:54:28;;;;;;;;;;;-6.70;99.90;;;;;;4995874;28;19926;-74
2024/01/11 05:56:56;;;;;;;;;;;-6.70;99.90;;;;;;4994808;28;20303;-75
2024/01/11 05:59:22;;;;;;;;;;;-6.50;99.90;;;;;;4995463;28;20372;-75
2024/01/11 06:01:49;;;;;;;;;;;-6.40;99.90;;;;;;4995220;28;19926;-75
2024/01/11 06:04:16;;;;;;;;;;;-6.50;99.90;;;;;;4996983;28;20410;-76
2024/01/11 06:06:44;;;;;;;;;;;-6.40;99.90;;;;;;4995255;28;19965;-76
2024/01/11 06:09:11;;;;;;;;;;;-6.40;99.90;;;;;;4995230;28;19926;-76
2024/01/11 06:11:37;;;;;;;;;;;-6.50;99.90;;;;;;4995907;28;19984;-75
2024/01/11 11:59:36;;;;;;;;;;;-2.00;99.90;;;;;;5232577;23;19926;-76
2024/01/11 12:02:03;;;;;;;;;;;-2.10;99.90;;;;;;4998471;28;19972;-75
2024/01/11 12:04:30;;;;;;;;;;;-2.10;99.90;;;;;;4998285;28;20021;-75
2024/01/11 12:06:56;;;;;;;;;;;-2.10;99.90;;;;;;4997914;28;19925;-75
2024/01/11 12:09:23;;;;;;;;;;;-2.10;99.90;;;;;;5011872;28;19932;-75
2024/01/11 12:11:50;;;;;;;;;;;-1.90;99.90;;;;;;5016998;28;19925;-74
2024/01/11 12:14:17;;;;;;;;;;;-2.10;99.90;;;;;;5016339;28;19925;-75
2024/01/11 12:16:45;;;;;;;;;;;-2.10;99.90;;;;;;5015911;28;19933;-75
2024/01/11 12:19:11;;;;;;;;;;;-2.10;99.90;;;;;;5016519;28;19932;-75
2024/01/11 12:21:38;;;;;;;;;;;-2.10;99.90;;;;;;5016413;28;20413;-75
2024/01/11 12:24:05;;;;;;;;;;;-2.20;99.90;;;;;;5016901;28;19930;-75
2024/01/11 12:26:32;;;;;;;;;;;-2.20;99.90;;;;;;5018469;28;19925;-75
2024/01/11 12:28:58;;;;;;;;;;;-2.20;99.90;;;;;;5016253;28;20514;-75
2024/01/11 12:31:25;;;;;;;;;;;-2.20;99.90;;;;;;5017135;28;19925;-75
2024/01/11 12:33:53;;;;;;;;;;;-2.50;99.90;;;;;;5016395;28;19948;-75
2024/01/11 12:36:19;;;;;;;;;;;-2.20;99.90;;;;;;5017742;28;19926;-75
2024/01/11 12:38:49;;;;;;;;;;;-2.30;99.90;;;;;;5016799;28;19929;-75
2024/01/11 12:41:16;;;;;;;;;;;-2.30;99.90;;;;;;5016417;28;20005;-75
2024/01/11 12:43:42;;;;;;;;;;;-2.40;99.90;;;;;;5016484;28;19956;-75
2024/01/11 12:46:09;;;;;;;;;;;-2.50;99.90;;;;;;5016503;28;19932;-77
2024/01/11 12:48:36;;;;;;;;;;;-2.50;99.90;;;;;;5016026;28;19926;-76
2024/01/11 12:51:05;;;;;;;;;;;-2.50;99.90;;;;;;5016078;28;19932;-76
2024/01/11 12:53:32;;;;;;;;;;;-2.50;99.90;;;;;;5015988;28;19958;-76
2024/01/11 12:56:08;;;;;;;;;;;-2.50;99.90;;;;;;5018520;28;20249;-73
2024/01/11 12:58:35;;;;;;;;;;;-2.40;99.90;;;;;;5017125;28;20405;-71
2024/01/11 13:01:02;;;;;;;;;;;-2.40;99.90;;;;;;5016423;28;20012;-70
2024/01/11 13:03:30;;;;;;;;;;;-2.40;99.90;;;;;;5017556;28;20303;-72
2024/01/11 13:05:58;;;;;;;;;;;-2.50;99.90;;;;;;5017532;28;19926;-71
2024/01/11 13:08:27;;;;;;;;;;;-2.40;99.90;;;;;;5017009;28;20387;-72
2024/01/11 13:10:54;;;;;;;;;;;-2.40;99.90;;;;;;5017488;28;20285;-72
2024/01/11 13:13:20;;;;;;;;;;;-2.40;99.90;;;;;;5016660;28;20012;-72
2024/01/11 13:15:47;;;;;;;;;;;-2.50;99.90;;;;;;5016886;28;19932;-72
2024/01/11 13:18:14;;;;;;;;;;;-2.50;99.90;;;;;;5016754;28;19926;-72
2024/01/11 13:20:41;;;;;;;;;;;-2.50;99.90;;;;;;5016656;28;20052;-72
2024/01/11 13:23:14;;;;;;;;;;;-2.50;99.90;;;;;;5017202;28;20045;-72
2024/01/11 13:25:43;;;;;;;;;;;-2.50;99.90;;;;;;5016512;28;20405;-72
2024/01/11 13:28:11;;;;;;;;;;;-2.60;99.90;;;;;;5016270;28;20295;-72
2024/01/11 13:30:38;;;;;;;;;;;-2.50;99.90;;;;;;5016345;28;19925;-72
2024/01/11 13:33:05;;;;;;;;;;;-2.60;99.90;;;;;;5016002;28;20402;-71
2024/01/11 13:35:32;;;;;;;;;;;-2.60;99.90;;;;;;5016256;28;19932;-72
2024/01/11 13:37:59;;;;;;;;;;;-2.60;99.90;;;;;;5016082;28;19995;-71
2024/01/11 13:40:28;;;;;;;;;;;-2.60;99.90;;;;;;5015970;28;19925;-71
2024/01/11 13:42:56;;;;;;;;;;;-2.60;99.90;;;;;;5016131;28;19936;-71
2024/01/11 13:45:23;;;;;;;;;;;-2.70;99.90;;;;;;5015987;28;19972;-72
2024/01/11 13:47:50;;;;;;;;;;;-2.70;99.90;;;;;;5016133;28;19926;-72
2024/01/11 13:50:17;;;;;;;;;;;-2.70;99.90;;;;;;5016877;28;19976;-72
2024/01/11 13:52:44;;;;;;;;;;;-2.70;99.90;;;;;;5014844;28;20400;-72
2024/01/11 13:55:11;;;;;;;;;;;-2.70;99.90;;;;;;5014783;28;20378;-72
2024/01/11 13:57:37;;;;;;;;;;;-2.80;99.90;;;;;;5014405;28;20379;-72
2024/01/11 14:00:06;;;;;;;;;;;-2.80;99.90;;;;;;5014540;28;20378;-72
2024/01/11 14:02:33;;;;;;;;;;;-2.80;99.90;;;;;;5014237;28;19925;-73
2024/01/11 14:04:59;;;;;;;;;;;-2.80;99.90;;;;;;5014578;28;20019;-73
2024/01/11 14:07:26;;;;;;;;;;;-2.80;99.90;;;;;;5014569;28;19925;-72
2024/01/11 14:09:53;;;;;;;;;;;-2.90;99.90;;;;;;5014378;28;19937;-73
2024/01/11 14:12:19;;;;;;;;;;;-2.90;99.90;;;;;;5014530;28;19968;-73
2024/01/11 14:14:46;;;;;;;;;;;-2.90;99.90;;;;;;5014632;28;19925;-73
2024/01/11 14:17:14;;;;;;;;;;;-3.00;99.90;;;;;;5014366;28;19926;-73
2024/01/11 14:19:40;;;;;;;;;;;-3.00;99.90;;;;;;5014253;28;19932;-73
2024/01/11 14:22:07;;;;;;;;;;;-3.00;99.90;;;;;;5014331;28;19926;-73
2024/01/11 14:24:33;;;;;;;;;;;-3.10;99.90;;;;;;5015948;28;19925;-73
2024/01/11 14:27:01;;;;;;;;;;;-3.10;99.90;;;;;;5015494;28;20342;-73
2024/01/11 14:29:29;;;;;;;;;;;-3.10;99.90;;;;;;5015978;28;19925;-74
2024/01/11 14:31:55;;;;;;;;;;;-3.20;99.90;;;;;;5015403;28;19932;-74
2024/01/11 14:34:24;;;;;;;;;;;-3.20;99.90;;;;;;5015126;28;19930;-74
2024/01/11 14:36:50;;;;;;;;;;;-3.30;99.90;;;;;;5015807;28;19926;-74
2024/01/11 14:39:17;;;;;;;;;;;-3.30;99.90;;;;;;5014683;28;19968;-74
2024/01/11 14:41:45;;;;;;;;;;;-3.30;99.90;;;;;;5016211;28;19948;-74
2024/01/11 14:44:12;;;;;;;;;;;-3.30;99.90;;;;;;5016001;28;20458;-75
2024/01/11 14:46:39;;;;;;;;;;;-3.40;99.90;;;;;;5016120;28;19925;-75
2024/01/11 14:49:07;;;;;;;;;;;-3.40;99.90;;;;;;5015730;28;19979;-75
2024/01/11 14:51:37;;;;;;;;;;;-3.40;99.90;;;;;;5015449;28;20274;-74
2024/01/11 14:54:04;;;;;;;;;;;-3.50;99.90;;;;;;5015453;28;19929;-74
2024/01/11 14:56:31;;;;;;;;;;;-3.50;99.90;;;;;;5015656;28;19980;-74
2024/01/11 14:58:58;;;;;;;;;;;-3.50;99.90;;;;;;5015355;28;20385;-74
2024/01/11 15:01:24;;;;;;;;;;;-3.60;99.90;;;;;;5017361;28;19961;-74
2024/01/11 15:03:51;;;;;;;;;;;-3.60;99.90;;;;;;5016548;28;20375;-74
2024/01/11 15:06:17;;;;;;;;;;;-3.70;99.90;;;;;;5015401;28;20303;-74
2024/01/11 15:08:45;;;;;;;;;;;-3.70;99.90;;;;;;5015165;28;19926;-74
2024/01/11 15:11:12;;;;;;;;;;;-3.80;99.90;;;;;;5015303;28;19926;-74
2024/01/11 15:13:39;;;;;;;;;;;-3.80;99.90;;;;;;5015948;28;19932;-74
2024/01/11 15:16:06;;;;;;;;;;;-3.80;99.90;;;;;;5015303;28;19933;-74
2024/01/11 15:18:33;;;;;;;;;;;-3.90;99.90;;;;;;5014836;28;19929;-75
2024/01/11 15:20:59;;;;;;;;;;;-4.00;99.90;;;;;;5015324;28;19926;-75
2024/01/11 15:23:26;;;;;;;;;;;-4.00;99.90;;;;;;5017018;28;19926;-75
2024/01/11 15:25:54;;;;;;;;;;;-4.00;99.90;;;;;;5016469;28;20019;-75
2024/01/11 15:28:20;;;;;;;;;;;-4.10;99.90;;;;;;5015029;28;20290;-74
2024/01/11 15:30:48;;;;;;;;;;;-4.10;99.90;;;;;;5013686;28;19926;-74
2024/01/11 15:33:14;;;;;;;;;;;-4.20;99.90;;;;;;5013741;28;19932;-74
2024/01/11 15:35:41;;;;;;;;;;;-4.20;99.90;;;;;;5014142;28;19952;-75
2024/01/11 15:38:08;;;;;;;;;;;-4.30;99.90;;;;;;5013721;28;20387;-75
2024/01/11 15:40:34;;;;;;;;;;;-4.30;99.90;;;;;;5013880;28;19926;-75
2024/01/11 15:43:06;;;;;;;;;;;-4.40;99.90;;;;;;5013527;28;20441;-75
2024/01/11 15:45:32;;;;;;;;;;;-4.40;99.90;;;;;;5013766;28;19929;-75
2024/01/11 15:47:59;;;;;;;;;;;-4.70;99.90;;;;;;5013899;28;19929;-75
2024/01/11 15:50:26;;;;;;;;;;;-4.60;99.90;;;;;;5016689;28;19937;-76
2024/01/11 15:52:52;;;;;;;;;;;-4.60;99.90;;;;;;5017779;28;19925;-75
2024/01/11 15:55:20;;;;;;;;;;;-4.60;99.90;;;;;;5019239;28;19926;-76
2024/01/11 15:57:47;;;;;;;;;;;-4.70;99.90;;;;;;5016805;28;19932;-76
2024/01/11 16:00:15;;;;;;;;;;;-4.70;99.90;;;;;;5016438;28;19960;-75
2024/01/11 16:02:43;;;;;;;;;;;-4.80;99.90;;;;;;5018462;28;19932;-76
2024/01/11 16:05:10;;;;;;;;;;;-4.90;99.90;;;;;;5017021;28;19926;-75
2024/01/11 16:07:37;;;;;;;;;;;-4.90;99.90;;;;;;5016836;28;19929;-75
2024/01/11 16:10:05;;;;;;;;;;;-5.00;99.90;;;;;;5016649;28;19929;-75
2024/01/11 16:12:31;;;;;;;;;;;-5.00;99.90;;;;;;5016703;28;19925;-75
2024/01/11 16:14:59;;;;;;;;;;;-5.10;99.90;;;;;;5016652;28;20306;-74
2024/01/11 16:17:27;;;;;;;;;;;-5.20;99.90;;;;;;5016599;28;19933;-76
2024/01/11 16:19:54;;;;;;;;;;;-5.20;99.90;;;;;;5016596;28;19933;-75
2024/01/11 16:22:21;;;;;;;;;;;-5.20;99.90;;;;;;5016584;28;19949;-75
2024/01/11 16:24:47;;;;;;;;;;;-5.30;99.90;;;;;;5016567;28;19930;-75
2024/01/11 16:27:14;;;;;;;;;;;-5.30;99.90;;;;;;5016546;28;20383;-75
2024/01/11 16:29:41;;;;;;;;;;;-5.30;99.90;;;;;;5017278;28;19965;-74
2024/01/11 16:32:08;;;;;;;;;;;-5.40;99.90;;;;;;5018249;28;19925;-75
2024/01/11 16:34:36;;;;;;;;;;;-5.40;99.90;;;;;;5017333;28;20382;-75
2024/01/11 16:37:03;;;;;;;;;;;-5.40;99.90;;;;;;5017232;28;19929;-75
2024/01/11 16:39:30;;;;;;;;;;;-5.40;99.90;;;;;;5017131;28;19969;-75
2024/01/11 16:41:57;;;;;;;;;;;-5.40;99.90;;;;;;5017790;28;19961;-75
2024/01/11 16:44:24;;;;;;;;;;;-5.40;99.90;;;;;;5016835;28;20351;-74
2024/01/11 16:46:52;;;;;;;;;;;-5.50;99.90;;;;;;5016531;28;19932;-76
2024/01/11 16:49:20;;;;;;;;;;;-5.50;99.90;;;;;;5016364;28;20016;-74
2024/01/11 16:51:49;;;;;;;;;;;-5.50;99.90;;;;;;5017032;28;19925;-75
2024/01/11 16:54:15;;;;;;;;;;;-5.50;99.90;;;;;;5016705;28;19925;-75
2024/01/11 16:56:43;;;;;;;;;;;-5.50;99.90;;;;;;5016957;28;20306;-75
2024/01/11 16:59:10;;;;;;;;;;;-5.60;99.90;;;;;;5016616;28;20342;-74
2024/01/11 17:01:37;;;;;;;;;;;-5.60;99.90;;;;;;5016083;28;19979;-74
2024/01/11 17:04:04;;;;;;;;;;;-5.60;99.90;;;;;;5016491;28;19929;-75
2024/01/11 17:06:30;;;;;;;;;;;-5.60;99.90;;;;;;5017001;28;19975;-75
2024/01/11 17:08:58;;;;;;;;;;;-5.70;99.90;;;;;;5015760;28;20020;-75
2024/01/11 17:11:25;;;;;;;;;;;-5.70;99.90;;;;;;5015483;28;20378;-75
2024/01/11 17:13:51;;;;;;;;;;;-5.70;99.90;;;;;;5015690;28;19932;-74
2024/01/11 17:16:18;;;;;;;;;;;-5.70;99.90;;;;;;5016140;28;19933;-74
2024/01/11 17:18:46;;;;;;;;;;;-5.70;99.90;;;;;;5015897;28;19932;-74
2024/01/11 17:21:13;;;;;;;;;;;-5.60;99.90;;;;;;5016262;28;19925;-74
2024/01/11 17:23:40;;;;;;;;;;;-5.60;99.90;;;;;;5016109;28;19925;-75
2024/01/11 17:26:08;;;;;;;;;;;-5.50;99.90;;;;;;5016000;28;19930;-74
2024/01/11 17:28:35;;;;;;;;;;;-5.70;99.90;;;;;;5017449;28;19932;-75
2024/01/11 17:31:03;;;;;;;;;;;-5.60;99.90;;;;;;5018071;28;19925;-75
2024/01/11 17:33:30;;;;;;;;;;;-5.80;99.90;;;;;;5016970;28;19984;-74
2024/01/11 17:35:57;;;;;;;;;;;-5.70;99.90;;;;;;5017133;28;20329;-74
2024/01/11 17:38:24;;;;;;;;;;;-5.80;99.90;;;;;;5018283;28;19936;-75
2024/01/11 17:40:50;;;;;;;;;;;-5.90;99.90;;;;;;5019130;28;19932;-74
2024/01/11 17:43:19;;;;;;;;;;;-5.90;99.90;;;;;;5019326;28;19929;-75
2024/01/11 17:45:48;;;;;;;;;;;-6.00;99.90;;;;;;5016459;28;19933;-75
2024/01/11 17:48:15;;;;;;;;;;;-6.00;99.90;;;;;;5016097;28;20003;-74
2024/01/11 17:50:41;;;;;;;;;;;-6.10;99.90;;;;;;5016837;28;20374;-75
2024/01/11 17:53:08;;;;;;;;;;;-6.20;99.90;;;;;;5017724;28;20308;-75
2024/01/11 17:55:35;;;;;;;;;;;-6.20;99.90;;;;;;5017163;28;19929;-74
2024/01/11 17:58:01;;;;;;;;;;;-6.20;99.90;;;;;;5016411;28;19932;-75
2024/01/11 18:00:29;;;;;;;;;;;-6.10;99.90;;;;;;5016717;28;19925;-76
2024/01/11 18:02:56;;;;;;;;;;;-6.30;99.90;;;;;;5017637;28;19948;-74
2024/01/11 18:05:23;;;;;;;;;;;-6.30;99.90;;;;;;5017028;28;19933;-75
2024/01/11 18:07:49;;;;;;;;;;;-6.30;99.90;;;;;;5016219;28;20288;-74
2024/01/11 18:10:17;;;;;;;;;;;-6.30;99.90;;;;;;5017019;28;19933;-75
2024/01/11 18:12:44;;;;;;;;;;;-6.30;99.90;;;;;;5029482;23;19926;-72
2024/01/11 18:15:11;;;;;;;;;;;-6.50;99.90;;;;;;4998563;28;19926;-74
2024/01/11 18:17:40;;;;;;;;;;;-6.50;99.90;;;;;;4999370;28;19932;-73
2024/01/11 18:20:07;;;;;;;;;;;-6.50;99.90;;;;;;4998483;28;20017;-73
2024/01/11 18:22:34;;;;;;;;;;;-6.50;99.90;;;;;;5008101;28;19925;-73
2024/01/11 18:25:01;;;;;;;;;;;-6.60;99.90;;;;;;5018066;28;19933;-73
2024/01/11 18:27:28;;;;;;;;;;;-6.60;99.90;;;;;;5018252;28;19932;-73
2024/01/11 18:29:54;;;;;;;;;;;-6.60;99.90;;;;;;5018108;28;19971;-73
2024/01/11 18:32:21;;;;;;;;;;;-6.60;99.90;;;;;;5017596;28;20276;-73
2024/01/11 18:34:49;;;;;;;;;;;-6.60;99.90;;;;;;5017894;28;19925;-72
2024/01/11 18:37:16;;;;;;;;;;;-6.60;99.90;;;;;;5017700;28;20318;-73
2024/01/11 18:39:43;;;;;;;;;;;-6.70;99.90;;;;;;5018048;28;19925;-74
2024/01/11 18:42:12;;;;;;;;;;;-6.70;99.90;;;;;;5018226;28;19968;-73
2024/01/11 18:44:39;;;;;;;;;;;-6.60;99.90;;;;;;5017892;28;19926;-74
2024/01/11 18:47:06;;;;;;;;;;;-6.80;99.90;;;;;;5017922;28;19932;-74
2024/01/11 18:49:32;;;;;;;;;;;-6.80;99.90;;;;;;5017811;28;19925;-73
2024/01/11 18:52:00;;;;;;;;;;;-6.80;99.90;;;;;;5017430;28;20302;-74
2024/01/11 18:54:27;;;;;;;;;;;-6.70;99.90;;;;;;5017481;28;19925;-73
2024/01/11 18:56:53;;;;;;;;;;;-6.80;99.90;;;;;;5017422;28;19925;-72
2024/01/11 18:59:20;;;;;;;;;;;-6.80;99.90;;;;;;5017652;28;19948;-74
2024/01/11 19:01:47;;;;;;;;;;;-6.80;99.90;;;;;;5017613;28;19926;-73
2024/01/11 19:04:14;;;;;;;;;;;-6.70;99.90;;;;;;5017714;28;19930;-73
2024/01/11 19:06:40;;;;;;;;;;;-6.80;99.90;;;;;;5017637;28;19932;-73
2024/01/11 19:09:09;;;;;;;;;;;-6.90;99.90;;;;;;5017812;28;19933;-72
2024/01/11 19:11:36;;;;;;;;;;;-6.90;99.90;;;;;;5017525;28;19936;-74
2024/01/11 19:14:02;;;;;;;;;;;-6.80;99.90;;;;;;5017821;28;19933;-73
2024/01/11 19:16:30;;;;;;;;;;;-7.00;99.90;;;;;;5017589;28;20354;-73
2024/01/11 19:18:56;;;;;;;;;;;-7.00;99.90;;;;;;5017369;28;19929;-74
2024/01/11 19:21:23;;;;;;;;;;;-7.00;99.90;;;;;;5017724;28;19932;-73
2024/01/11 19:23:49;;;;;;;;;;;-7.10;99.90;;;;;;5016963;28;19933;-73
2024/01/11 19:26:17;;;;;;;;;;;-7.00;99.90;;;;;;5022718;28;19929;-73
2024/01/11 19:28:44;;;;;;;;;;;-7.00;99.90;;;;;;5026305;28;19958;-74
2024/01/11 19:31:10;;;;;;;;;;;-7.00;99.90;;;;;;5025841;28;19925;-73
2024/01/11 19:33:37;;;;;;;;;;;-6.80;99.90;;;;;;5027234;28;19925;-73
2024/01/11 19:36:04;;;;;;;;;;;-7.00;99.90;;;;;;5026720;28;19926;-74
2024/01/11 19:38:34;;;;;;;;;;;-7.00;99.90;;;;;;5024017;28;19925;-74
2024/01/11 19:41:00;;;;;;;;;;;-7.00;99.90;;;;;;5022452;28;19925;-74
2024/01/11 19:43:28;;;;;;;;;;;-6.90;99.90;;;;;;5021970;28;19926;-74
2024/01/11 19:45:55;;;;;;;;;;;-6.80;99.90;;;;;;5021902;28;19925;-74
2024/01/11 19:48:22;;;;;;;;;;;-6.80;99.90;;;;;;5021580;28;19953;-74
2024/01/11 19:50:48;;;;;;;;;;;-6.90;99.90;;;;;;5020953;28;19932;-72
2024/01/11 19:53:15;;;;;;;;;;;-6.80;99.90;;;;;;5020812;28;19925;-73
2024/01/11 19:55:42;;;;;;;;;;;-6.90;99.90;;;;;;5020502;28;20378;-73
2024/01/11 19:58:09;;;;;;;;;;;-6.90;99.90;;;;;;5020390;28;19926;-73
2024/01/11 20:00:40;;;;;;;;;;;-6.90;99.90;;;;;;5020912;28;19925;-73
2024/01/11 20:03:07;;;;;;;;;;;-7.00;99.90;;;;;;5020069;28;19933;-73
2024/01/11 20:05:34;;;;;;;;;;;-7.00;99.90;;;;;;5020853;28;19925;-74
2024/01/11 20:08:02;;;;;;;;;;;-7.00;99.90;;;;;;5020549;28;20290;-73
2024/01/11 20:10:29;;;;;;;;;;;-7.10;99.90;;;;;;5020566;28;19925;-73
2024/01/11 20:12:55;;;;;;;;;;;-7.20;99.90;;;;;;5020440;28;19932;-74
2024/01/11 20:15:22;;;;;;;;;;;-7.20;99.90;;;;;;5020102;28;19925;-75
2024/01/11 20:17:50;;;;;;;;;;;-7.20;99.90;;;;;;5021885;28;19932;-76
2024/01/11 20:20:17;;;;;;;;;;;-7.20;99.90;;;;;;5022175;28;19933;-76
2024/01/11 20:22:43;;;;;;;;;;;-7.30;99.90;;;;;;5025007;28;20283;-75
2024/01/11 20:25:10;;;;;;;;;;;-7.30;99.90;;;;;;5025632;28;19933;-76
2024/01/11 20:27:37;;;;;;;;;;;-7.40;99.90;;;;;;5025401;28;19930;-74
2024/01/11 20:30:05;;;;;;;;;;;-7.40;99.90;;;;;;5024621;28;19926;-75
2024/01/11 20:32:31;;;;;;;;;;;-7.40;99.90;;;;;;5022213;28;19972;-75
2024/01/11 20:34:59;;;;;;;;;;;-7.50;99.90;;;;;;5021724;28;19933;-76
2024/01/11 20:37:26;;;;;;;;;;;-7.50;99.90;;;;;;5020390;28;19926;-76
2024/01/11 20:39:52;;;;;;;;;;;-7.40;99.90;;;;;;5020273;28;20378;-73
2024/01/11 20:42:19;;;;;;;;;;;-7.50;99.90;;;;;;5018308;28;20008;-73
2024/01/11 20:44:45;;;;;;;;;;;-7.50;99.90;;;;;;5016974;28;19948;-76
2024/01/11 20:47:12;;;;;;;;;;;-7.50;99.90;;;;;;5016638;28;20406;-76
2024/01/11 20:49:38;;;;;;;;;;;-7.50;99.90;;;;;;5016906;28;20012;-76
2024/01/11 20:52:07;;;;;;;;;;;-7.50;99.90;;;;;;5016982;28;19948;-75
2024/01/11 20:54:33;;;;;;;;;;;-7.50;99.90;;;;;;5017227;28;20303;-75
2024/01/11 20:57:00;;;;;;;;;;;-7.40;99.90;;;;;;5016976;28;19925;-76
2024/01/11 20:59:28;;;;;;;;;;;-7.50;99.90;;;;;;5016396;28;20390;-75
2024/01/11 21:01:54;;;;;;;;;;;-7.60;99.90;;;;;;5017129;28;19933;-76
2024/01/11 21:04:21;;;;;;;;;;;-7.50;99.90;;;;;;5016550;28;19925;-75
2024/01/11 21:06:47;;;;;;;;;;;-7.60;99.90;;;;;;5016051;28;19929;-76
2024/01/11 21:09:15;;;;;;;;;;;-7.60;99.90;;;;;;5015749;28;19929;-74
2024/01/11 21:11:42;;;;;;;;;;;-7.60;99.90;;;;;;5015822;28;19933;-71
2024/01/11 21:14:09;;;;;;;;;;;-7.70;99.90;;;;;;5015332;28;19932;-71
2024/01/11 21:16:36;;;;;;;;;;;-7.70;99.90;;;;;;5016225;28;19968;-70
2024/01/11 21:19:05;;;;;;;;;;;-7.70;99.90;;;;;;5015804;28;20315;-69
2024/01/11 21:21:31;;;;;;;;;;;-7.70;99.90;;;;;;5015711;28;20024;-71
2024/01/11 21:23:59;;;;;;;;;;;-7.80;99.90;;;;;;5015726;28;19929;-70
2024/01/11 21:26:27;;;;;;;;;;;-7.70;99.90;;;;;;5015487;28;20387;-70
2024/01/11 21:28:54;;;;;;;;;;;-7.80;99.90;;;;;;5015178;28;20395;-69
2024/01/11 21:31:22;;;;;;;;;;;-7.80;99.90;;;;;;5015513;28;19932;-69
2024/01/11 21:33:48;;;;;;;;;;;-7.90;99.90;;;;;;5020500;28;19925;-70
2024/01/11 21:36:16;;;;;;;;;;;-7.90;99.90;;;;;;5020966;28;19929;-70
2024/01/11 21:38:42;;;;;;;;;;;-7.90;99.90;;;;;;5015038;28;20305;-70
2024/01/11 21:41:09;;;;;;;;;;;-7.90;99.90;;;;;;5015142;28;19949;-70
2024/01/11 21:43:37;;;;;;;;;;;-7.90;99.90;;;;;;5014651;28;20394;-70
